XQI weather

Xiquipilli Airport
Emiliano Zapata, Tabasco, Mexico

Public forecast

Using degrees Celsius for public forecast. Weather courtesy of forecast.io.

METAR (pilot weather report)

Report is more than 6 hours old.

Closest report is Palenque International Airport, 27.4 nm (50.7 km) SW. Retrieved 2019/06/19 23:47 UTC (9 hours ago):

MMPQ 192347Z 00000KT 7SM SKC 35/26 A2966 RMK HZY

TAF (pilot weather forecast)

Closest forecast is Palenque International Airport, 27.4 nm (50.7 km) SW. Retrieved 2019/06/20 06:28 UTC (2 hours ago):

TAF MMPQ 200528Z 2006/2106 00000KT 6SM HZ SCT250 FM201600 08008KT P6SM SCT020 FM210200 08005KT 5SM HZ SCT020